| time (UTC) | temp F | wind direction | speed knots | gust knots | rain 1hr in | rain 24hr in | rain mn in | humidity % | barometer mb |
| 20260507104543 | 47 | 290 | 5.2 | 10.4 | 0.00 | 0.21 | 0.03 | 87 | 1004.8 |
| 20260507103039 | 47 | 258 | 2.6 | 7.0 | 0.00 | 0.21 | 0.03 | 89 | 1005.0 |
| 20260507101541 | 47 | 267 | 0.9 | 7.8 | 0.00 | 0.21 | 0.03 | 90 | 1004.8 |
| 20260507100045 | 47 | 269 | 2.6 | 7.8 | 0.00 | 0.21 | 0.03 | 90 | 1004.5 |
| 20260507094527 | 47 | 129 | 1.7 | 6.1 | 0.01 | 0.21 | 0.03 | 91 | 1004.4 |
| 20260507093024 | 47 | 297 | 3.5 | 11.3 | 0.01 | 0.21 | 0.03 | 91 | 1004.3 |
| 20260507091520 | 47 | 288 | 5.2 | 9.6 | 0.01 | 0.21 | 0.03 | 91 | 1004.2 |
| 20260507090018 | 48 | 285 | 2.6 | 6.1 | 0.01 | 0.21 | 0.03 | 91 | 1004.4 |
| 20260507084512 | 48 | 272 | 0.9 | 3.5 | 0.00 | 0.20 | 0.02 | 90 | 1005.0 |
| 20260507083012 | 48 | 268 | 1.7 | 6.1 | 0.00 | 0.20 | 0.02 | 90 | 1004.9 |
| 20260507081505 | 48 | 265 | 1.7 | 4.3 | 0.01 | 0.20 | 0.02 | 89 | 1004.9 |
| 20260507080104 | 48 | 256 | 2.6 | 6.1 | 0.02 | 0.20 | 0.02 | 89 | 1004.6 |
| 20260507074627 | 48 | 287 | 0.9 | 5.2 | 0.02 | 0.20 | 0.02 | 89 | 1004.6 |
| 20260507073102 | 48 | 281 | 3.5 | 8.7 | 0.02 | 0.20 | 0.02 | 87 | 1004.8 |
| 20260507071552 | 49 | 300 | 2.6 | 6.1 | 0.01 | 0.19 | 0.01 | 84 | 1004.3 |
| 20260507070048 | 50 | 290 | 5.2 | 8.7 | 0.00 | 0.18 | 0.00 | 80 | 1004.2 |
| 20260507064545 | 50 | 261 | 2.6 | 8.7 | 0.00 | 0.18 | 0.00 | 79 | 1004.0 |
| 20260507063047 | 51 | 53 | 0.9 | 3.5 | 0.00 | 0.18 | 0.00 | 82 | 1003.9 |
| 20260507061537 | 51 | 275 | 0.0 | 3.5 | 0.00 | 0.18 | 0.00 | 85 | 1004.1 |
| 20260507060033 | 51 | 277 | 1.7 | 7.0 | 0.00 | 0.18 | 0.00 | 85 | 1004.3 |
| 20260507054529 | 51 | 287 | 2.6 | 7.0 | 0.00 | 0.18 | 0.00 | 85 | 1004.0 |
| 20260507053020 | 52 | 288 | 0.9 | 7.8 | 0.00 | 0.18 | 0.00 | 86 | 1004.3 |
| 20260507051517 | 53 | 281 | 1.7 | 7.0 | 0.00 | 0.18 | 0.00 | 87 | 1004.5 |
| 20260507050014 | 53 | 87 | 3.5 | 9.6 | 0.00 | 0.18 | 0.00 | 89 | 1004.4 |
| 20260507044509 | 54 | 282 | 2.6 | 7.8 | 0.00 | 0.18 | 0.00 | 90 | 1004.2 |
| 20260507043005 | 54 | 293 | 1.7 | 4.3 | 0.00 | 0.18 | 0.00 | 90 | 1004.3 |
| 20260507041503 | 54 | 253 | 0.0 | 3.5 | 0.00 | 0.18 | 0.00 | 90 | 1004.1 |
| 20260507034558 | 55 | 240 | 1.7 | 7.8 | 0.01 | 0.18 | 0.18 | 90 | 1004.4 |
| 20260507033055 | 56 | 243 | 3.5 | 10.4 | 0.01 | 0.18 | 0.18 | 88 | 1004.2 |
| 20260507031551 | 58 | 269 | 4.3 | 12.2 | 0.01 | 0.18 | 0.18 | 87 | 1003.9 |
| 20260507030047 | 59 | 269 | 2.6 | 7.0 | 0.00 | 0.17 | 0.17 | 90 | 1003.5 |
| 20260507024549 | 59 | 301 | 3.5 | 11.3 | 0.00 | 0.17 | 0.17 | 91 | 1003.4 |
| 20260507023041 | 59 | 216 | 3.5 | 11.3 | 0.00 | 0.17 | 0.17 | 94 | 1003.5 |
| 20260507021534 | 58 | 188 | 3.5 | 7.0 | 0.00 | 0.17 | 0.17 | 95 | 1003.0 |
| 20260507020028 | 58 | 210 | 2.6 | 6.1 | 0.00 | 0.17 | 0.17 | 95 | 1003.1 |
| 20260507014537 | 58 | 201 | 1.7 | 5.2 | 0.00 | 0.17 | 0.17 | 95 | 1003.0 |
| 20260507013024 | 58 | 188 | 2.6 | 7.0 | 0.00 | 0.17 | 0.17 | 95 | 1003.1 |
| 20260507011519 | 58 | 191 | 3.5 | 9.6 | 0.00 | 0.17 | 0.17 | 95 | 1002.7 |
| 20260507010012 | 58 | 170 | 4.3 | 9.6 | 0.00 | 0.17 | 0.17 | 95 | 1003.3 |
| 20260507004520 | 58 | 169 | 4.3 | 11.3 | 0.00 | 0.17 | 0.17 | 95 | 1003.2 |
| 20260507003004 | 58 | 158 | 5.2 | 11.3 | 0.00 | 0.17 | 0.17 | 95 | 1003.2 |
| 20260507001501 | 58 | 91 | 5.2 | 11.3 | 0.00 | 0.17 | 0.17 | 94 | 1002.9 |
| 20260507000101 | 58 | 213 | 4.3 | 11.3 | 0.00 | 0.17 | 0.17 | 94 | 1002.9 |
| 20260506234601 | 58 | 146 | 6.1 | 13.0 | 0.01 | 0.17 | 0.17 | 94 | 1002.7 |
| 20260506233054 | 58 | 198 | 5.2 | 10.4 | 0.03 | 0.17 | 0.17 | 95 | 1002.7 |
| 20260506231555 | 58 | 208 | 5.2 | 10.4 | 0.05 | 0.17 | 0.17 | 94 | 1002.8 |
| 20260506230054 | 58 | 231 | 7.0 | 12.2 | 0.05 | 0.17 | 0.17 | 94 | 1002.6 |
| 20260506224540 | 58 | 165 | 5.2 | 10.4 | 0.04 | 0.16 | 0.16 | 94 | 1002.6 |
| 20260506223047 | 58 | 176 | 5.2 | 12.2 | 0.01 | 0.13 | 0.13 | 94 | 1002.8 |
| 20260506221531 | 58 | 195 | 3.5 | 8.7 | 0.01 | 0.12 | 0.12 | 94 | 1002.8 |
| 20260506220028 | 58 | 223 | 4.3 | 11.3 | 0.01 | 0.12 | 0.12 | 94 | 1003.0 |
| 20260506214523 | 58 | 158 | 3.5 | 8.7 | 0.01 | 0.12 | 0.12 | 94 | 1003.0 |
| 20260506213020 | 58 | 162 | 6.1 | 13.0 | 0.01 | 0.12 | 0.12 | 93 | 1003.1 |
| 20260506211516 | 59 | 167 | 3.5 | 11.3 | 0.00 | 0.11 | 0.11 | 92 | 1003.3 |
| 20260506210014 | 59 | 163 | 4.3 | 13.0 | 0.00 | 0.11 | 0.11 | 91 | 1003.4 |
| 20260506204509 | 59 | 191 | 4.3 | 13.9 | 0.01 | 0.11 | 0.11 | 91 | 1003.5 |
| 20260506203005 | 59 | 185 | 5.2 | 16.5 | 0.01 | 0.11 | 0.11 | 91 | 1003.6 |
| 20260506201503 | 59 | 226 | 4.3 | 16.5 | 0.02 | 0.11 | 0.11 | 91 | 1003.6 |
| 20260506200104 | 59 | 171 | 7.0 | 18.2 | 0.04 | 0.11 | 0.11 | 91 | 1003.6 |
| 20260506194614 | 59 | 201 | 7.0 | 14.8 | 0.04 | 0.10 | 0.10 | 91 | 1003.8 |
| 20260506193054 | 59 | 203 | 7.0 | 14.8 | 0.07 | 0.10 | 0.10 | 90 | 1003.8 |
| 20260506191551 | 60 | 191 | 7.8 | 18.2 | 0.08 | 0.09 | 0.09 | 89 | 1004.0 |
| 20260506190046 | 60 | 160 | 5.2 | 13.0 | 0.07 | 0.07 | 0.07 | 88 | 1004.1 |
| 20260506184542 | 61 | 154 | 4.3 | 12.2 | 0.06 | 0.06 | 0.06 | 87 | 1003.9 |
| 20260506183055 | 62 | 168 | 4.3 | 13.9 | 0.03 | 0.03 | 0.03 | 83 | 1004.2 |
| 20260506181537 | 63 | 214 | 9.6 | 17.4 | 0.01 | 0.01 | 0.01 | 80 | 1004.5 |
| 20260506180035 | 64 | 225 | 7.8 | 19.1 | 0.00 | 0.00 | 0.00 | 76 | 1004.5 |
| 20260506174527 | 66 | 214 | 10.4 | 26.9 | 0.00 | 0.00 | 0.00 | 71 | 1004.6 |
| 20260506173024 | 68 | 211 | 9.6 | 25.2 | 0.00 | 0.00 | 0.00 | 66 | 1004.7 |
| 20260506171526 | 70 | 192 | 13.0 | 25.2 | 0.00 | 0.00 | 0.00 | 62 | 1004.3 |
| 20260506170015 | 70 | 203 | 7.8 | 24.3 | 0.00 | 0.00 | 0.00 | 62 | 1004.4 |
| 20260506164512 | 71 | 205 | 7.8 | 15.6 | 0.00 | 0.00 | 0.00 | 60 | 1004.6 |
| 20260506163008 | 70 | 196 | 5.2 | 17.4 | 0.00 | 0.00 | 0.00 | 61 | 1004.6 |
| 20260506161503 | 70 | 195 | 7.8 | 17.4 | 0.00 | 0.00 | 0.00 | 61 | 1004.9 |
| 20260506160115 | 70 | 210 | 7.0 | 25.2 | 0.00 | 0.00 | 0.00 | 62 | 1005.1 |
| 20260506154604 | 69 | 200 | 9.6 | 20.9 | 0.00 | 0.00 | 0.00 | 63 | 1005.3 |
| 20260506153051 | 69 | 136 | 3.5 | 15.6 | 0.00 | 0.00 | 0.00 | 65 | 1005.6 |
| 20260506151548 | 68 | 245 | 9.6 | 18.2 | 0.00 | 0.00 | 0.00 | 64 | 1005.7 |
| 20260506150044 | 69 | 199 | 4.3 | 19.1 | 0.00 | 0.00 | 0.00 | 65 | 1005.8 |
| 20260506144553 | 68 | 214 | 7.0 | 14.8 | 0.00 | 0.00 | 0.00 | 67 | 1005.9 |
| 20260506143037 | 67 | 177 | 5.2 | 11.3 | 0.00 | 0.00 | 0.00 | 70 | 1006.2 |
| 20260506141533 | 66 | 205 | 4.3 | 13.0 | 0.00 | 0.00 | 0.00 | 72 | 1006.0 |
| 20260506140028 | 66 | 201 | 7.0 | 13.0 | 0.00 | 0.00 | 0.00 | 73 | 1005.9 |
| 20260506134525 | 65 | 215 | 4.3 | 14.8 | 0.00 | 0.00 | 0.00 | 74 | 1005.9 |
| 20260506133020 | 64 | 196 | 3.5 | 12.2 | 0.00 | 0.00 | 0.00 | 76 | 1006.0 |
| 20260506131515 | 63 | 198 | 6.1 | 13.9 | 0.00 | 0.00 | 0.00 | 78 | 1006.4 |
| 20260506130013 | 62 | 191 | 7.8 | 13.0 | 0.00 | 0.00 | 0.00 | 80 | 1006.6 |
| 20260506124506 | 61 | 222 | 6.1 | 14.8 | 0.00 | 0.00 | 0.00 | 80 | 1006.6 |
| 20260506123104 | 62 | 196 | 3.5 | 9.6 | 0.00 | 0.00 | 0.00 | 80 | 1006.5 |
| 20260506121600 | 60 | 203 | 5.2 | 13.0 | 0.00 | 0.00 | 0.00 | 82 | 1006.8 |
| 20260506120057 | 60 | 212 | 4.3 | 12.2 | 0.00 | 0.00 | 0.00 | 83 | 1006.8 |
| 20260506114555 | 59 | 229 | 2.6 | 8.7 | 0.00 | 0.00 | 0.00 | 84 | 1006.8 |
| 20260506113049 | 58 | 196 | 4.3 | 14.8 | 0.00 | 0.00 | 0.00 | 85 | 1007.1 |
| 20260506111544 | 58 | 154 | 6.1 | 12.2 | 0.00 | 0.00 | 0.00 | 86 | 1007.3 |
| 20260506110041 | 57 | 241 | 4.3 | 11.3 | 0.00 | 0.00 | 0.00 | 87 | 1007.2 |